Time;durP1;ratioP1;P1;durP2;ratioP2;P2;SDS_P1;SDS_P2;PMS_P1;PMS_P2;Temp;Humidity;BMP_temperature;BMP_pressure;BME280_temperature;BME280_humidity;BME280_pressure;Samples;Min_cycle;Max_cycle;Signal;HPM_P1;HPM_P2
2021/07/20 00:01:50;;;;;;;11.98;5.47;;;;;;;21.31;53.91;98473.25;5075283;28;20486;-91
2021/07/20 00:04:16;;;;;;;12.10;5.68;;;;;;;21.20;53.89;98470.50;5076528;28;20464;-93
2021/07/20 00:06:42;;;;;;;9.48;5.30;;;;;;;21.23;54.39;98476.53;5076000;28;20040;-91
2021/07/20 00:09:08;;;;;;;8.75;4.70;;;;;;;21.05;55.50;98464.38;5076348;28;20102;-92
2021/07/20 00:11:34;;;;;;;9.93;5.10;;;;;;;20.90;56.26;98466.38;5076021;28;20036;-91
2021/07/20 00:14:00;;;;;;;8.98;4.97;;;;;;;20.88;56.22;98481.84;5076610;28;20036;-93
2021/07/20 00:16:29;;;;;;;12.07;5.55;;;;;;;20.70;56.92;98467.88;5076992;28;20501;-91
2021/07/20 00:18:55;;;;;;;10.13;5.35;;;;;;;20.59;56.51;98471.34;5078378;28;20045;-90
2021/07/20 00:21:21;;;;;;;9.85;5.80;;;;;;;20.78;56.36;98486.25;5076635;28;20087;-91
2021/07/20 00:23:47;;;;;;;12.88;5.00;;;;;;;20.81;56.31;98488.69;5076662;28;20132;-90
2021/07/20 00:26:13;;;;;;;11.73;5.50;;;;;;;20.92;55.67;98477.94;5076588;28;20059;-92
2021/07/20 00:28:39;;;;;;;10.68;5.13;;;;;;;20.89;56.64;98480.91;5077727;28;20097;-92
2021/07/20 00:31:05;;;;;;;9.65;5.25;;;;;;;20.80;56.60;98478.88;5077023;28;20036;-93
2021/07/20 00:33:32;;;;;;;13.32;6.13;;;;;;;20.64;57.80;98471.88;5077919;28;20131;-92
2021/07/20 00:35:58;;;;;;;10.60;5.10;;;;;;;20.36;58.34;98467.56;5075731;28;20043;-91
2021/07/20 00:38:25;;;;;;;11.40;5.25;;;;;;;20.22;58.85;98476.69;5075864;28;20037;-92
2021/07/20 00:40:52;;;;;;;9.57;5.78;;;;;;;20.06;59.26;98486.81;5075760;28;20401;-92
2021/07/20 00:43:18;;;;;;;10.52;5.68;;;;;;;19.92;59.52;98482.41;5075906;28;20098;-90
2021/07/20 00:45:44;;;;;;;10.85;5.53;;;;;;;19.94;59.26;98495.81;5070060;28;20432;-92
2021/07/20 00:48:09;;;;;;;9.75;5.43;;;;;;;20.24;57.85;98490.06;5075590;28;20067;-91
2021/07/20 00:50:41;;;;;;;9.57;5.43;;;;;;;20.40;57.33;98487.13;5076035;28;20049;-90
2021/07/20 00:53:08;;;;;;;13.88;5.97;;;;;;;20.46;56.88;98484.00;5076450;28;20185;-92
2021/07/20 00:55:36;;;;;;;10.02;5.88;;;;;;;20.42;57.15;98471.69;5077099;28;20067;-92
2021/07/20 00:58:03;;;;;;;12.43;5.95;;;;;;;20.40;57.27;98469.09;5076089;28;20119;-91
2021/07/20 01:00:29;;;;;;;10.45;5.70;;;;;;;20.46;57.16;98498.34;5073668;28;20086;-92
2021/07/20 01:02:55;;;;;;;14.35;6.10;;;;;;;20.43;56.87;98474.28;5074973;28;20045;-92
2021/07/20 01:05:22;;;;;;;10.20;5.57;;;;;;;20.65;56.44;98489.81;5075121;28;20032;-92
2021/07/20 01:07:50;;;;;;;11.10;5.88;;;;;;;20.69;55.96;98485.94;5074695;28;20059;-91
2021/07/20 01:10:18;;;;;;;11.15;5.93;;;;;;;20.80;56.17;98503.19;5067405;28;20486;-92
2021/07/20 01:12:45;;;;;;;10.50;5.88;;;;;;;20.63;57.27;98502.59;5075003;28;20068;-91
2021/07/20 01:15:14;;;;;;;13.32;6.15;;;;;;;20.47;57.22;98499.22;5073334;28;20051;-91
2021/07/20 01:17:41;;;;;;;10.80;6.18;;;;;;;20.33;57.99;98511.00;5074542;28;20048;-91
2021/07/20 01:20:09;;;;;;;10.55;6.18;;;;;;;20.11;58.70;98507.13;5074556;28;20090;-92
2021/07/20 01:22:36;;;;;;;11.60;6.38;;;;;;;20.15;57.42;98509.63;5074747;28;20041;-91
2021/07/20 01:25:09;;;;;;;12.00;6.18;;;;;;;20.24;57.52;98512.53;5074291;28;20386;-91
2021/07/20 01:27:36;;;;;;;11.88;6.15;;;;;;;20.24;57.04;98507.13;5071842;28;20045;-90
2021/07/20 01:30:03;;;;;;;11.05;5.70;;;;;;;20.21;57.37;98499.25;5072989;28;20355;-91
2021/07/20 01:32:29;;;;;;;9.63;5.15;;;;;;;20.27;57.09;98506.91;5074734;28;20136;-91
2021/07/20 01:34:56;;;;;;;9.13;5.55;;;;;;;20.23;58.37;98510.81;5076174;28;20060;-91
2021/07/20 01:37:24;;;;;;;14.50;5.88;;;;;;;20.07;59.00;98515.56;5076461;28;20045;-91
2021/07/20 01:39:53;;;;;;;11.00;5.60;;;;;;;19.98;58.70;98518.91;5074751;28;20457;-90
2021/07/20 01:42:22;;;;;;;10.02;5.43;;;;;;;20.02;57.96;98525.81;5074369;28;20045;-90
2021/07/20 01:44:49;;;;;;;10.82;5.50;;;;;;;20.27;55.73;98517.72;5074591;28;20051;-94
2021/07/20 01:47:17;;;;;;;9.52;5.03;;;;;;;20.51;55.28;98536.72;5072233;28;20509;-90
2021/07/20 01:49:44;;;;;;;12.65;6.20;;;;;;;20.39;56.44;98532.19;5075870;28;20051;-90
2021/07/20 01:52:11;;;;;;;9.65;5.75;;;;;;;20.30;56.68;98530.16;5075291;28;20059;-91
2021/07/20 01:54:37;;;;;;;8.80;5.40;;;;;;;20.15;56.72;98515.88;5075217;28;20078;-91
2021/07/20 01:57:03;;;;;;;13.23;6.70;;;;;;;20.08;57.39;98522.66;5073601;28;20048;-92
2021/07/20 01:59:30;;;;;;;12.18;6.10;;;;;;;19.96;57.59;98516.31;5073762;28;20050;-92
2021/07/20 02:11:15;;;;;;;13.77;6.55;;;;;;;19.85;58.57;98521.59;5131686;27;20367;-91
2021/07/20 02:13:45;;;;;;;11.70;5.78;;;;;;;19.79;59.17;98522.00;5127078;28;20043;-93
2021/07/20 02:16:13;;;;;;;13.23;5.90;;;;;;;19.75;58.87;98525.88;5129675;27;20047;-90
2021/07/20 02:18:43;;;;;;;9.00;6.03;;;;;;;19.78;58.66;98521.16;5127488;28;20035;-90
2021/07/20 02:21:09;;;;;;;9.13;5.35;;;;;;;19.81;58.36;98518.22;5131360;27;20039;-90
2021/07/20 02:23:37;;;;;;;11.25;6.15;;;;;;;19.91;58.12;98523.88;5131085;27;20393;-92
2021/07/20 02:26:04;;;;;;;11.82;5.70;;;;;;;19.83;58.28;98507.34;5133132;27;20512;-90
2021/07/20 02:28:33;;;;;;;9.32;5.20;;;;;;;19.86;58.14;98518.78;5131614;27;20063;-90
2021/07/20 02:30:59;;;;;;;;;;;;;;;19.80;58.46;98527.31;5130673;28;20135;-92
2021/07/20 02:33:25;;;;;;;11.70;5.50;;;;;;;19.62;59.38;98509.63;5131433;28;20026;-92
2021/07/20 02:35:51;;;;;;;10.55;6.30;;;;;;;19.45;61.03;98508.97;5131042;27;20500;-92
2021/07/20 02:38:18;;;;;;;11.90;6.32;;;;;;;19.17;62.40;98507.25;5131564;27;20480;-90
2021/07/20 02:40:46;;;;;;;11.10;6.30;;;;;;;18.83;63.72;98522.94;5131876;27;20267;-92
2021/07/20 02:43:14;;;;;;;11.65;6.32;;;;;;;18.40;65.30;98520.25;5131804;27;20035;-90
2021/07/20 02:45:42;;;;;;;11.95;6.00;;;;;;;18.12;66.46;98510.34;5130491;27;20039;-92
2021/07/20 02:48:08;;;;;;;12.40;6.63;;;;;;;18.05;66.37;98501.78;5131428;27;20105;-91
2021/07/20 02:50:35;;;;;;;11.82;6.88;;;;;;;18.02;66.90;98502.00;5131641;27;20071;-91
2021/07/20 02:53:03;;;;;;;12.57;6.28;;;;;;;18.09;66.84;98521.31;5131622;27;20040;-92
2021/07/20 02:55:30;;;;;;;10.57;6.72;;;;;;;17.99;66.98;98512.06;5131357;27;20501;-91
2021/07/20 02:57:59;;;;;;;14.23;7.07;;;;;;;18.02;67.01;98506.47;5131010;27;20127;-91
2021/07/20 03:00:26;;;;;;;15.15;6.68;;;;;;;18.18;66.46;98519.88;5129626;27;20055;-91
2021/07/20 03:02:55;;;;;;;10.52;6.07;;;;;;;18.41;65.75;98527.38;5131123;27;20046;-91
2021/07/20 03:05:21;;;;;;;14.38;6.97;;;;;;;18.47;65.22;98521.59;5131444;27;20505;-90
2021/07/20 03:07:49;;;;;;;12.55;5.90;;;;;;;18.41;65.31;98522.00;5131129;27;20123;-91
2021/07/20 03:10:16;;;;;;;11.98;6.63;;;;;;;18.34;65.60;98520.63;5130581;28;20442;-90
2021/07/20 03:12:45;;;;;;;10.45;6.32;;;;;;;18.24;66.43;98514.13;5130821;28;20375;-92
2021/07/20 03:15:12;;;;;;;10.55;6.70;;;;;;;18.37;65.94;98528.53;5129472;27;20381;-93
2021/07/20 03:17:38;;;;;;;11.05;6.20;;;;;;;18.35;66.10;98537.69;5130824;27;20122;-91
2021/07/20 03:20:10;;;;;;;10.88;6.82;;;;;;;18.27;66.55;98536.31;5130727;28;20115;-90
2021/07/20 03:22:38;;;;;;;10.15;6.47;;;;;;;18.12;66.88;98525.63;5116129;28;20091;-91
2021/07/20 03:25:06;;;;;;;13.00;6.72;;;;;;;18.12;67.05;98541.78;5118704;28;20063;-92
2021/07/20 03:27:37;;;;;;;12.00;6.53;;;;;;;18.05;66.73;98520.63;5118697;28;20032;-91
2021/07/20 03:30:05;;;;;;;13.50;6.70;;;;;;;18.15;66.50;98522.75;5116925;28;20032;-92
2021/07/20 03:32:31;;;;;;;8.65;5.78;;;;;;;18.32;66.26;98532.47;5116790;28;20059;-91
2021/07/20 03:34:58;;;;;;;12.45;6.57;;;;;;;18.28;66.22;98512.94;5116893;28;20591;-92
2021/07/20 03:37:26;;;;;;;11.82;6.65;;;;;;;18.18;65.82;98509.13;5116723;28;20035;-92
2021/07/20 03:39:53;;;;;;;11.90;6.47;;;;;;;18.29;66.02;98527.28;5116994;28;20048;-92
2021/07/20 03:42:21;;;;;;;10.38;5.93;;;;;;;18.26;65.99;98526.50;5116798;28;20043;-90
2021/07/20 03:44:46;;;;;;;11.30;6.82;;;;;;;18.19;66.94;98545.81;5116379;28;20120;-91
2021/07/20 03:47:14;;;;;;;11.00;6.40;;;;;;;18.06;67.43;98543.91;5115412;28;20068;-92
2021/07/20 03:49:40;;;;;;;9.52;6.35;;;;;;;18.23;66.50;98547.38;5116392;28;20031;-92
2021/07/20 03:52:07;;;;;;;12.55;6.78;;;;;;;18.22;66.69;98549.19;5116765;28;20032;-92
2021/07/20 03:54:35;;;;;;;10.38;5.85;;;;;;;18.30;66.81;98566.69;5118024;28;20043;-92
2021/07/20 03:57:03;;;;;;;10.40;6.28;;;;;;;18.09;66.96;98537.47;5124883;27;20036;-91
2021/07/20 03:59:33;;;;;;;10.88;6.22;;;;;;;18.16;67.00;98543.31;5118111;28;20036;-92
2021/07/20 04:02:01;;;;;;;11.30;6.20;;;;;;;18.21;67.22;98552.81;5112855;28;20035;-92
2021/07/20 04:04:33;;;;;;;9.27;5.67;;;;;;;18.23;67.07;98560.81;5116530;28;20065;-92
2021/07/20 04:07:01;;;;;;;10.10;6.38;;;;;;;18.19;67.40;98554.75;5116675;28;20324;-93
2021/07/20 04:09:27;;;;;;;11.25;6.57;;;;;;;18.16;67.54;98552.25;5115930;28;20102;-92
2021/07/20 04:11:55;;;;;;;15.85;6.95;;;;;;;17.99;68.07;98542.53;5116348;28;20494;-91
2021/07/20 04:14:22;;;;;;;13.82;5.95;;;;;;;17.94;68.59;98543.78;5116174;28;20035;-91
2021/07/20 04:16:49;;;;;;;12.57;6.82;;;;;;;17.80;68.63;98542.75;5114991;28;20069;-92
2021/07/20 04:19:16;;;;;;;13.23;6.80;;;;;;;17.75;69.56;98552.91;5115803;28;20032;-92
2021/07/20 04:21:43;;;;;;;13.85;6.97;;;;;;;17.65;70.45;98560.69;5116218;28;20042;-91
2021/07/20 04:24:09;;;;;;;11.70;6.70;;;;;;;17.63;70.26;98550.94;5115690;28;20073;-90
2021/07/20 04:26:35;;;;;;;15.70;7.72;;;;;;;17.69;70.11;98557.78;5115985;28;20078;-91
2021/07/20 04:29:03;;;;;;;15.77;7.28;;;;;;;17.68;70.10;98559.63;5115684;28;20036;-92
2021/07/20 04:31:30;;;;;;;12.40;6.57;;;;;;;17.86;69.68;98569.28;5114470;28;20035;-91
2021/07/20 04:33:57;;;;;;;12.32;6.00;;;;;;;17.97;69.49;98571.34;5114720;28;20044;-91
2021/07/20 04:36:24;;;;;;;13.27;6.72;;;;;;;18.03;69.64;98570.97;5115732;28;20051;-91
2021/07/20 04:38:51;;;;;;;11.60;6.28;;;;;;;18.11;69.28;98575.91;5115723;28;20085;-92
2021/07/20 04:41:20;;;;;;;13.27;6.53;;;;;;;18.17;69.31;98567.47;5110025;28;20040;-92
2021/07/20 04:43:46;;;;;;;15.00;7.13;;;;;;;18.27;69.03;98570.44;5115731;28;20043;-92
2021/07/20 04:46:15;;;;;;;14.85;6.85;;;;;;;18.36;68.55;98571.69;5115229;28;20066;-91
2021/07/20 04:48:41;;;;;;;9.32;6.68;;;;;;;18.45;68.38;98580.09;5115411;28;20123;-92
2021/07/20 04:51:07;;;;;;;11.23;6.90;;;;;;;18.56;67.78;98595.53;5115486;28;20126;-91
2021/07/20 04:53:34;;;;;;;13.38;7.53;;;;;;;18.59;67.94;98587.28;5115705;28;20054;-92
2021/07/20 04:56:00;;;;;;;11.52;6.55;;;;;;;18.61;67.69;98568.34;5115521;28;20032;-90
2021/07/20 04:58:26;;;;;;;11.35;7.38;;;;;;;18.76;67.50;98579.94;5115387;28;20036;-91
2021/07/20 05:00:53;;;;;;;11.75;7.05;;;;;;;18.84;68.07;98583.06;5113623;28;20042;-92
2021/07/20 05:03:22;;;;;;;11.98;6.43;;;;;;;18.77;67.80;98557.44;5114975;28;20036;-92
2021/07/20 05:05:51;;;;;;;11.60;5.90;;;;;;;18.90;67.10;98569.19;5114999;28;20035;-93
2021/07/20 05:08:18;;;;;;;11.05;6.30;;;;;;;19.12;67.07;98583.97;5115082;28;20130;-91
2021/07/20 05:10:46;;;;;;;10.70;6.45;;;;;;;19.32;66.34;98572.75;5114606;28;20134;-92
2021/07/20 05:13:15;;;;;;;10.60;5.67;;;;;;;20.17;63.60;98578.75;5114877;28;20043;-92
2021/07/20 05:15:41;;;;;;;11.38;7.22;;;;;;;20.55;60.08;98580.56;5114382;28;20036;-92
2021/07/20 05:18:07;;;;;;;7.65;5.45;;;;;;;20.84;59.25;98591.16;5114410;28;20077;-91
2021/07/20 05:20:35;;;;;;;10.45;5.97;;;;;;;21.10;58.02;98571.22;5114494;28;20088;-92
2021/07/20 05:23:02;;;;;;;8.18;5.28;;;;;;;21.67;57.14;98574.28;5114411;28;20063;-92
2021/07/20 05:25:28;;;;;;;6.82;5.18;;;;;;;21.90;56.27;98576.09;5114409;28;20489;-92
2021/07/20 05:27:56;;;;;;;12.32;5.60;;;;;;;22.07;54.70;98573.91;5114029;28;20050;-91
2021/07/20 05:30:22;;;;;;;10.07;5.32;;;;;;;22.45;54.45;98564.69;5113075;28;20031;-92
2021/07/20 05:35:56;;;;;;;10.38;5.60;;;;;;;23.30;53.39;98583.16;5133061;27;20186;-91
2021/07/20 05:38:23;;;;;;;10.65;5.05;;;;;;;23.60;52.68;98576.19;5092950;28;20080;-90
2021/07/20 05:40:49;;;;;;;15.50;5.80;;;;;;;23.93;51.74;98576.06;5111279;28;20051;-91
2021/07/20 05:43:15;;;;;;;11.52;5.20;;;;;;;24.01;50.48;98578.13;5098659;28;20043;-92
2021/07/20 05:45:42;;;;;;;11.73;5.88;;;;;;;23.89;50.05;98593.59;5101826;28;20064;-90
2021/07/20 05:48:09;;;;;;;11.40;5.28;;;;;;;23.83;50.46;98585.97;5093614;28;20377;-90
2021/07/20 05:50:36;;;;;;;10.70;5.10;;;;;;;23.86;50.07;98593.88;5101846;28;20489;-90
2021/07/20 05:53:04;;;;;;;9.43;5.07;;;;;;;23.99;49.70;98591.84;5102454;28;20052;-91
2021/07/20 05:55:31;;;;;;;10.73;5.05;;;;;;;23.76;50.12;98592.91;5098031;28;20386;-92
2021/07/20 05:57:58;;;;;;;9.60;5.45;;;;;;;23.79;50.97;98576.38;5111087;28;20428;-91
2021/07/20 06:00:26;;;;;;;11.15;5.22;;;;;;;24.12;50.85;98585.34;5101806;28;20438;-91
2021/07/20 06:02:52;;;;;;;;;;;;;;;24.26;49.00;98604.03;5098809;28;20035;-91
2021/07/20 06:05:20;;;;;;;9.88;4.68;;;;;;;24.34;48.92;98579.78;5100050;28;20410;-91
2021/07/20 06:07:47;;;;;;;12.77;5.17;;;;;;;24.61;48.48;98583.81;5105014;28;20040;-91
2021/07/20 06:10:17;;;;;;;8.35;4.50;;;;;;;24.86;47.20;98590.69;5099278;28;20127;-91
2021/07/20 06:12:44;;;;;;;9.93;5.15;;;;;;;24.70;47.83;98584.88;5102698;28;20050;-91
2021/07/20 06:15:12;;;;;;;14.52;5.07;;;;;;;24.67;47.42;98580.56;5102239;28;20386;-91
2021/07/20 06:17:38;;;;;;;9.18;4.97;;;;;;;24.53;48.17;98595.38;5098610;28;20040;-88
2021/07/20 06:20:06;;;;;;;12.80;5.38;;;;;;;24.53;48.09;98597.25;5102008;28;20047;-93
2021/07/20 06:22:36;;;;;;;10.38;5.57;;;;;;;24.90;47.46;98589.41;5099892;28;20040;-92
2021/07/20 06:25:04;;;;;;;12.57;5.93;;;;;;;25.18;47.58;98589.66;5100965;28;20135;-92
2021/07/20 06:27:35;;;;;;;11.05;4.60;;;;;;;25.24;45.89;98583.69;5108458;28;20536;-90
2021/07/20 06:30:04;;;;;;;10.13;5.07;;;;;;;25.38;45.86;98575.13;5097211;28;20031;-93
2021/07/20 06:32:31;;;;;;;9.02;4.90;;;;;;;25.55;45.96;98589.91;5095237;28;20050;-91
2021/07/20 06:34:57;;;;;;;9.82;5.15;;;;;;;25.65;45.72;98594.50;5093135;28;20076;-92
2021/07/20 06:37:25;;;;;;;10.57;5.47;;;;;;;25.46;46.18;98604.38;5103060;28;20105;-92
2021/07/20 06:39:52;;;;;;;12.60;5.60;;;;;;;25.51;46.90;98593.91;5101606;28;20036;-91
2021/07/20 06:42:19;;;;;;;9.45;5.43;;;;;;;25.31;46.62;98589.41;5097012;28;20060;-92
2021/07/20 06:44:47;;;;;;;8.15;4.95;;;;;;;25.45;46.25;98596.34;5098667;28;20036;-90
2021/07/20 06:47:15;;;;;;;12.25;6.15;;;;;;;25.44;47.15;98610.94;5085060;28;20123;-92
2021/07/20 06:49:42;;;;;;;9.20;5.10;;;;;;;25.64;46.70;98571.03;5083512;28;20090;-91
2021/07/20 06:52:08;;;;;;;11.05;5.10;;;;;;;25.66;45.61;98604.41;5082861;28;20289;-93
2021/07/20 06:54:35;;;;;;;11.38;5.40;;;;;;;25.79;45.96;98594.09;5090104;28;20370;-93
2021/07/20 06:57:02;;;;;;;12.43;5.63;;;;;;;25.96;44.46;98593.44;5095953;28;20401;-92
2021/07/20 06:59:29;;;;;;;12.77;6.93;;;;;;;26.07;44.42;98610.63;5085910;28;20055;-92
2021/07/20 07:01:57;;;;;;;13.68;6.30;;;;;;;25.97;44.33;98589.69;5082476;28;20068;-92
2021/07/20 07:04:26;;;;;;;12.60;6.07;;;;;;;26.22;43.91;98601.03;5089394;28;20036;-93
2021/07/20 07:06:55;;;;;;;9.55;5.95;;;;;;;26.19;44.69;98612.19;5083288;28;20056;-90
2021/07/20 07:09:24;;;;;;;10.82;5.38;;;;;;;26.30;43.58;98603.00;5088792;28;20040;-92
2021/07/20 07:11:51;;;;;;;10.27;6.05;;;;;;;26.30;43.95;98592.94;5090363;28;20032;-93
2021/07/20 07:14:17;;;;;;;12.75;6.85;;;;;;;26.34;43.85;98588.09;5095064;28;20075;-92
2021/07/20 07:16:46;;;;;;;11.35;5.47;;;;;;;26.31;43.61;98589.25;5086847;28;20040;-93
2021/07/20 07:19:16;;;;;;;8.73;5.90;;;;;;;26.43;43.62;98590.78;5083215;28;20040;-95
2021/07/20 07:21:43;;;;;;;13.02;6.28;;;;;;;26.62;43.12;98597.25;5078810;28;20043;-94
2021/07/20 07:24:11;;;;;;;10.57;5.93;;;;;;;26.11;43.25;98584.78;5085525;28;20040;-93
2021/07/20 07:26:37;;;;;;;9.88;5.32;;;;;;;25.79;43.68;98594.97;5089915;28;20079;-94
2021/07/20 07:29:04;;;;;;;10.68;5.63;;;;;;;25.93;43.82;98614.63;5086580;28;20143;-93
2021/07/20 07:31:30;;;;;;;10.60;5.70;;;;;;;25.95;43.01;98594.41;5086476;28;20108;-94
2021/07/20 07:33:56;;;;;;;9.65;5.38;;;;;;;25.92;43.63;98610.22;5081931;28;20424;-91
2021/07/20 07:36:24;;;;;;;10.80;5.45;;;;;;;26.06;43.67;98600.72;5083492;28;20036;-91
2021/07/20 07:38:52;;;;;;;10.27;5.50;;;;;;;26.36;43.08;98613.34;5091740;28;20045;-92
2021/07/20 07:41:18;;;;;;;12.85;6.15;;;;;;;26.73;42.78;98609.84;5087062;28;20044;-92
2021/07/20 07:43:44;;;;;;;12.88;5.93;;;;;;;26.75;42.13;98603.22;5084871;28;20428;-91
2021/07/20 07:46:12;;;;;;;12.80;5.97;;;;;;;26.87;41.59;98606.66;5087100;28;20050;-91
2021/07/20 07:48:40;;;;;;;9.00;5.70;;;;;;;26.98;40.83;98619.25;5080705;28;20131;-91
2021/07/20 07:51:08;;;;;;;10.73;6.10;;;;;;;26.98;41.00;98609.19;5087775;28;20032;-93
2021/07/20 07:53:36;;;;;;;13.32;6.13;;;;;;;27.02;40.94;98610.59;5082339;28;20426;-93
2021/07/20 07:56:02;;;;;;;10.48;5.88;;;;;;;26.78;40.33;98591.16;5087413;28;20064;-93
2021/07/20 07:58:29;;;;;;;11.57;6.43;;;;;;;27.28;39.63;98606.34;5086208;28;20032;-93
2021/07/20 08:00:56;;;;;;;16.25;6.65;;;;;;;26.99;39.57;98594.50;5087117;28;20494;-92
2021/07/20 08:03:25;;;;;;;9.48;5.10;;;;;;;27.43;39.78;98623.94;5088697;28;20114;-92
2021/07/20 08:05:51;;;;;;;11.27;5.82;;;;;;;26.92;39.75;98620.69;5097335;28;20044;-94
2021/07/20 08:08:17;;;;;;;9.35;5.70;;;;;;;27.28;39.46;98599.00;5089445;28;20093;-93
2021/07/20 08:10:47;;;;;;;11.23;5.85;;;;;;;27.43;39.63;98596.63;5081620;28;20044;-92
2021/07/20 08:13:14;;;;;;;11.55;5.70;;;;;;;28.02;39.57;98599.84;5091933;28;20087;-92
2021/07/20 08:15:41;;;;;;;25.27;7.25;;;;;;;28.30;37.75;98594.25;5084382;28;20044;-91
2021/07/20 08:18:07;;;;;;;12.85;6.32;;;;;;;27.76;37.41;98586.94;5084900;28;20127;-92
2021/07/20 08:20:34;;;;;;;12.43;5.85;;;;;;;27.71;39.13;98597.44;5086680;28;20048;-93
2021/07/20 08:23:00;;;;;;;11.48;6.22;;;;;;;26.95;39.99;98619.53;5090284;28;20052;-93
2021/07/20 08:25:29;;;;;;;12.13;6.18;;;;;;;27.25;39.89;98611.09;5090594;28;20498;-91
2021/07/20 08:28:09;;;;;;;12.82;5.80;;;;;;;27.46;39.19;98612.72;5089298;28;20152;-93
2021/07/20 08:30:41;;;;;;;10.82;6.28;;;;;;;27.78;39.07;98584.91;5076173;28;20044;-93
2021/07/20 08:33:16;;;;;;;11.18;5.70;;;;;;;28.12;36.15;98581.47;5084998;28;20051;-92
2021/07/20 08:35:43;;;;;;;9.90;5.65;;;;;;;28.41;36.96;98592.13;5088525;28;20044;-94
2021/07/20 08:38:12;;;;;;;14.70;6.28;;;;;;;27.76;37.51;98591.50;5086681;28;20040;-94
2021/07/20 08:40:48;;;;;;;12.18;5.78;;;;;;;28.44;37.21;98594.53;5086410;28;20080;-91
2021/07/20 08:43:31;;;;;;;16.70;6.60;;;;;;;28.50;36.84;98609.50;5085852;28;20040;-91
2021/07/20 08:46:09;;;;;;;13.52;5.88;;;;;;;28.25;36.61;98608.41;5084454;28;20041;-91
2021/07/20 08:48:46;;;;;;;13.10;5.88;;;;;;;28.75;35.70;98594.09;5086368;28;20046;-92
2021/07/20 08:51:16;;;;;;;10.85;5.43;;;;;;;29.25;35.66;98608.94;5084080;28;20068;-93
2021/07/20 08:53:49;;;;;;;9.32;5.18;;;;;;;29.53;35.55;98598.59;5089104;28;20043;-92
2021/07/20 08:56:18;;;;;;;13.00;5.35;;;;;;;29.80;34.08;98582.94;5092278;28;20085;-93
2021/07/20 08:58:49;;;;;;;13.82;6.22;;;;;;;29.98;33.26;98591.00;5086830;28;20490;-94
2021/07/20 09:01:23;;;;;;;13.07;5.93;;;;;;;30.12;32.88;98586.72;5084272;28;20020;-93
2021/07/20 09:03:58;;;;;;;13.43;5.72;;;;;;;30.22;33.11;98584.69;5083910;28;20021;-92
2021/07/20 09:06:30;;;;;;;13.07;6.22;;;;;;;30.16;33.32;98593.59;5091356;28;20044;-92
2021/07/20 09:09:01;;;;;;;13.07;6.13;;;;;;;30.26;32.57;98594.28;5089151;28;20068;-92
2021/07/20 09:11:34;;;;;;;11.40;5.85;;;;;;;30.22;32.85;98577.31;5082476;28;20041;-93
2021/07/20 09:14:11;;;;;;;11.93;5.47;;;;;;;29.75;32.44;98579.84;5084528;28;20619;-93
2021/07/20 09:16:42;;;;;;;14.55;6.15;;;;;;;29.12;33.32;98606.66;5082618;28;20113;-91
2021/07/20 09:19:23;;;;;;;14.50;7.38;;;;;;;28.95;34.81;98591.13;5078559;28;20047;-93
2021/07/20 09:21:52;;;;;;;16.25;6.20;;;;;;;29.31;33.18;98600.06;5085920;28;20041;-94
2021/07/20 09:24:25;;;;;;;11.77;6.10;;;;;;;28.80;34.43;98583.53;5083535;28;20071;-92
2021/07/20 09:26:55;;;;;;;11.43;6.25;;;;;;;29.39;32.90;98594.63;5085485;28;20425;-92
2021/07/20 09:29:28;;;;;;;11.88;6.13;;;;;;;29.44;32.88;98580.41;5089851;28;20048;-93
2021/07/20 09:32:07;;;;;;;11.55;6.15;;;;;;;29.85;32.21;98584.13;5080002;28;20115;-94
2021/07/20 09:34:47;;;;;;;12.57;5.95;;;;;;;30.23;31.64;98586.38;5093817;28;20056;-94
2021/07/20 09:37:20;;;;;;;10.20;5.70;;;;;;;30.33;29.63;98587.09;5094841;28;20050;-93
2021/07/20 09:39:49;;;;;;;11.73;5.40;;;;;;;30.50;30.15;98571.50;5083929;28;20069;-94
2021/07/20 09:42:30;;;;;;;15.23;5.97;;;;;;;30.50;30.91;98580.56;5087542;28;20036;-93
2021/07/20 09:45:03;;;;;;;12.43;5.78;;;;;;;30.88;29.48;98574.50;5093656;28;20036;-92
2021/07/20 09:47:45;;;;;;;10.63;5.97;;;;;;;31.04;29.23;98576.38;5089463;28;20044;-93
2021/07/20 09:50:14;;;;;;;9.45;5.53;;;;;;;31.05;28.93;98567.94;5091188;28;20045;-94
2021/07/20 09:53:11;;;;;;;11.35;5.50;;;;;;;31.06;30.61;98588.03;5089604;28;20040;-93
2021/07/20 09:55:45;;;;;;;16.15;5.55;;;;;;;31.32;28.50;98593.25;5079344;28;20033;-94
2021/07/20 09:58:21;;;;;;;13.30;5.70;;;;;;;30.41;28.59;98576.13;5083781;28;20041;-93
2021/07/20 10:01:02;;;;;;;10.05;5.68;;;;;;;30.79;29.26;98573.66;5082318;28;20123;-94
2021/07/20 10:03:37;;;;;;;13.13;5.22;;;;;;;31.14;27.64;98579.75;5095033;28;20086;-93
2021/07/20 10:06:10;;;;;;;13.75;4.90;;;;;;;30.55;27.75;98563.59;5096050;28;20115;-93
2021/07/20 10:08:46;;;;;;;14.57;5.22;;;;;;;30.17;27.51;98552.28;5077932;28;20044;-93
2021/07/20 10:11:21;;;;;;;11.85;5.60;;;;;;;29.86;27.32;98557.56;5087526;28;20393;-94
2021/07/20 10:14:01;;;;;;;11.57;5.18;;;;;;;30.06;27.71;98572.69;5087422;28;20768;-95
2021/07/20 10:16:41;;;;;;;10.82;5.53;;;;;;;30.47;27.01;98569.97;5087109;28;20036;-94
2021/07/20 10:19:10;;;;;;;12.18;5.40;;;;;;;30.68;26.81;98541.94;5088292;28;20572;-94
2021/07/20 10:21:41;;;;;;;11.73;5.30;;;;;;;31.24;26.49;98580.41;5089802;28;20040;-95
2021/07/20 10:24:14;;;;;;;13.82;5.95;;;;;;;31.36;24.86;98549.78;5089599;28;20032;-94
2021/07/20 10:26:46;;;;;;;11.88;5.20;;;;;;;31.41;26.08;98572.94;5080929;28;20516;-94
2021/07/20 10:29:19;;;;;;;13.25;6.10;;;;;;;31.53;25.66;98567.91;5093798;28;20405;-92
2021/07/20 10:31:52;;;;;;;11.77;5.57;;;;;;;31.61;25.09;98562.38;5088516;28;20053;-93
2021/07/20 10:34:23;;;;;;;11.93;5.53;;;;;;;31.39;24.45;98557.69;5086067;28;20040;-94
2021/07/20 10:36:53;;;;;;;15.65;4.88;;;;;;;31.17;26.01;98542.84;5089362;28;20045;-93
2021/07/20 10:39:21;;;;;;;14.90;5.43;;;;;;;31.18;25.56;98547.28;5087739;28;20045;-94
2021/07/20 10:41:57;;;;;;;13.13;5.03;;;;;;;31.37;26.71;98554.25;5084212;28;20047;-93
2021/07/20 10:44:32;;;;;;;12.77;4.90;;;;;;;31.45;24.80;98532.25;5081930;28;20036;-92
2021/07/20 10:47:04;;;;;;;12.10;5.50;;;;;;;31.22;24.88;98543.16;5089109;28;20032;-91
2021/07/20 10:49:36;;;;;;;15.10;5.72;;;;;;;31.03;25.73;98534.28;5086236;28;20101;-93
2021/07/20 10:52:10;;;;;;;12.52;5.72;;;;;;;30.68;26.18;98536.44;5089207;28;20059;-91
2021/07/20 10:54:41;;;;;;;12.02;5.30;;;;;;;30.78;25.67;98513.44;5088875;28;20040;-93
2021/07/20 10:57:16;;;;;;;14.52;6.22;;;;;;;31.39;26.84;98536.53;5089016;28;20149;-92
2021/07/20 10:59:55;;;;;;;10.10;5.57;;;;;;;31.37;25.62;98532.28;5082455;28;20039;-93
2021/07/20 11:02:33;;;;;;;13.23;5.22;;;;;;;30.66;25.80;98512.97;5080072;28;20100;-94
2021/07/20 11:05:00;;;;;;;13.82;5.28;;;;;;;31.11;26.23;98517.78;5086675;28;20480;-92
2021/07/20 11:07:30;;;;;;;12.43;4.97;;;;;;;31.22;25.51;98524.78;5089517;28;20044;-92
2021/07/20 11:10:06;;;;;;;17.30;5.45;;;;;;;31.32;25.81;98524.56;5085816;28;20359;-93
2021/07/20 11:12:39;;;;;;;16.02;5.55;;;;;;;31.21;26.05;98506.59;5090475;28;20040;-94
2021/07/20 11:15:06;;;;;;;8.85;5.85;;;;;;;31.62;26.61;98506.38;5092910;28;20397;-93
2021/07/20 11:17:37;;;;;;;14.18;5.60;;;;;;;32.01;25.35;98519.16;5085919;28;20048;-92
2021/07/20 11:20:07;;;;;;;16.00;5.68;;;;;;;32.00;26.02;98502.84;5084349;28;20043;-93
2021/07/20 11:22:34;;;;;;;10.48;5.30;;;;;;;32.01;24.95;98499.91;5084447;28;20048;-93
2021/07/20 11:25:01;;;;;;;12.23;5.00;;;;;;;32.22;25.73;98515.69;5090324;28;20043;-93
2021/07/20 11:27:27;;;;;;;13.13;5.55;;;;;;;31.81;25.22;98510.50;5087965;28;20040;-92
2021/07/20 11:29:54;;;;;;;15.48;5.88;;;;;;;31.26;25.57;98512.41;5089719;28;20048;-94
2021/07/20 11:32:23;;;;;;;10.98;5.53;;;;;;;31.48;26.02;98502.50;5090282;28;20485;-91
2021/07/20 11:34:56;;;;;;;16.73;5.93;;;;;;;31.98;25.13;98514.03;5084248;28;20501;-90
2021/07/20 11:37:28;;;;;;;15.73;5.32;;;;;;;32.07;25.68;98501.06;5084501;28;20040;-92
2021/07/20 11:40:00;;;;;;;10.95;5.28;;;;;;;32.26;25.16;98516.19;5088893;28;20074;-91
2021/07/20 11:42:35;;;;;;;11.25;5.65;;;;;;;32.39;25.05;98499.03;5090114;28;20044;-92
2021/07/20 11:45:05;;;;;;;11.23;5.35;;;;;;;32.22;24.82;98501.94;5082667;28;20077;-94
2021/07/20 11:47:34;;;;;;;8.98;5.10;;;;;;;32.20;24.59;98478.41;5083663;28;20520;-94